Verdun, Canada
Current Conditions -  °F | °C
As of 6:00 AM on Saturday 20 Dec 2014 (Local Time) from CYHU Reporting Station
Clear Clear  
Wind Chill:   Ceiling: Unl
Heat Index:   Visibility: 9mi
Dew Point:   Wind: 0mph
Humidity: 85%   Direction: NA
Pressure: 30.31"   Gusts: NA
Location:  45.46°N, 73.57°W
Report Text: CYHU 201100Z AUTO 00000KT 9SM CLR M15/M17 A3031 RMK SLP267
Loading
Personal Weather Stations






























Interactive Weather Map New forecast layout! Learn more

10-Day Weather Forecast

Advertisements
Track Severe Weather on mobile